sensor_id;sensor_type;location;lat;lon;timestamp;pressure;altitude;pressure_sealevel;temperature;humidity
12913;BME280;6524;51.368;11.984;2023-07-08T00:07:04;156131.75;;;15.63;47.98
12913;BME280;6524;51.368;11.984;2023-07-08T00:12:09;156140.97;;;15.66;47.91
12913;BME280;6524;51.368;11.984;2023-07-08T00:17:11;156097.72;;;15.49;47.40
12913;BME280;6524;51.368;11.984;2023-07-08T00:22:13;156057.09;;;15.33;48.10
12913;BME280;6524;51.368;11.984;2023-07-08T00:27:14;156003.34;;;15.13;47.92
12913;BME280;6524;51.368;11.984;2023-07-08T00:32:15;155952.22;;;14.93;48.01
12913;BME280;6524;51.368;11.984;2023-07-08T00:37:15;155962.72;;;14.97;47.87
12913;BME280;6524;51.368;11.984;2023-07-08T04:00:55;155207.38;;;12.02;57.76
12913;BME280;6524;51.368;11.984;2023-07-08T04:05:55;155221.78;;;12.07;57.62
12913;BME280;6524;51.368;11.984;2023-07-08T04:10:57;155253.16;;;12.20;57.44
12913;BME280;6524;51.368;11.984;2023-07-08T04:16:02;155267.56;;;12.25;57.73
12913;BME280;6524;51.368;11.984;2023-07-08T04:21:04;155297.66;;;12.37;56.83
12913;BME280;6524;51.368;11.984;2023-07-08T04:26:04;155478.19;;;13.08;55.36
12913;BME280;6524;51.368;11.984;2023-07-08T04:31:04;155520.03;;;13.24;55.34
12913;BME280;6524;51.368;11.984;2023-07-08T04:36:11;155554.16;;;13.37;55.34
12913;BME280;6524;51.368;11.984;2023-07-08T04:41:12;155616.94;;;13.62;55.47
12913;BME280;6524;51.368;11.984;2023-07-08T04:46:29;155588.19;;;13.51;56.52
12913;BME280;6524;51.368;11.984;2023-07-08T04:51:31;155699.44;;;13.94;56.76
12913;BME280;6524;51.368;11.984;2023-07-08T04:56:38;155768.84;;;14.21;55.74
12913;BME280;6524;51.368;11.984;2023-07-08T05:01:39;155868.41;;;14.60;55.43
12913;BME280;6524;51.368;11.984;2023-07-08T05:06:39;155936.50;;;14.86;54.04
12913;BME280;6524;51.368;11.984;2023-07-08T05:11:39;155911.63;;;14.77;54.29
12913;BME280;6524;51.368;11.984;2023-07-08T05:16:40;155982.41;;;15.04;54.12
12913;BME280;6524;51.368;11.984;2023-07-08T05:21:41;156015.16;;;15.17;53.61
12913;BME280;6524;51.368;11.984;2023-07-08T05:26:41;156117.38;;;15.57;53.10
12913;BME280;6524;51.368;11.984;2023-07-08T05:31:41;156206.56;;;15.92;52.64
12913;BME280;6524;51.368;11.984;2023-07-08T05:36:42;156290.44;;;16.24;51.94
12913;BME280;6524;51.368;11.984;2023-07-08T05:41:42;156269.50;;;16.16;50.92
12913;BME280;6524;51.368;11.984;2023-07-08T05:46:43;156379.66;;;16.59;49.77
12913;BME280;6524;51.368;11.984;2023-07-08T05:51:44;156443.91;;;16.84;49.13
12913;BME280;6524;51.368;11.984;2023-07-08T05:56:44;156471.50;;;16.95;48.96
12913;BME280;6524;51.368;11.984;2023-07-08T06:01:44;156537.13;;;17.21;48.79
12913;BME280;6524;51.368;11.984;2023-07-08T06:06:45;156649.97;;;17.65;47.84
12913;BME280;6524;51.368;11.984;2023-07-08T06:11:45;156755.00;;;18.05;46.96
12913;BME280;6524;51.368;11.984;2023-07-08T06:16:46;156777.34;;;18.14;46.74
12913;BME280;6524;51.368;11.984;2023-07-08T06:21:46;156774.69;;;18.13;47.62
12913;BME280;6524;51.368;11.984;2023-07-08T06:26:46;156903.38;;;18.63;46.05
12913;BME280;6524;51.368;11.984;2023-07-08T06:31:47;156975.63;;;18.91;46.26
12913;BME280;6524;51.368;11.984;2023-07-08T06:36:47;157067.63;;;19.27;45.55
12913;BME280;6524;51.368;11.984;2023-07-08T06:41:47;157091.28;;;19.36;45.60
12913;BME280;6524;51.368;11.984;2023-07-08T06:46:48;157270.03;;;20.06;44.01
12913;BME280;6524;51.368;11.984;2023-07-08T06:51:48;157433.06;;;20.69;43.20
12913;BME280;6524;51.368;11.984;2023-07-08T06:56:48;157498.78;;;20.95;41.83
12913;BME280;6524;51.368;11.984;2023-07-08T07:01:48;157533.00;;;21.08;41.53
12913;BME280;6524;51.368;11.984;2023-07-08T07:06:49;157573.81;;;21.24;41.05
12913;BME280;6524;51.368;11.984;2023-07-08T07:11:49;157669.84;;;21.61;40.49
12913;BME280;6524;51.368;11.984;2023-07-08T07:16:49;157819.88;;;22.19;39.53
12913;BME280;6524;51.368;11.984;2023-07-08T07:21:50;157918.56;;;22.58;39.29
12913;BME280;6524;51.368;11.984;2023-07-08T07:26:51;157917.28;;;22.57;38.32
12913;BME280;6524;51.368;11.984;2023-07-08T07:31:51;158034.50;;;23.03;37.44
12913;BME280;6524;51.368;11.984;2023-07-08T07:36:52;158077.91;;;23.20;36.68
12913;BME280;6524;51.368;11.984;2023-07-08T07:41:52;158128.00;;;23.39;36.00
12913;BME280;6524;51.368;11.984;2023-07-08T07:46:53;158099.00;;;23.28;35.53
12913;BME280;6524;51.368;11.984;2023-07-08T07:51:54;158233.34;;;23.80;35.10
12913;BME280;6524;51.368;11.984;2023-07-08T08:43:35;159338.75;;;28.08;26.79
12913;BME280;6524;51.368;11.984;2023-07-08T08:49:13;159378.34;;;28.24;26.01
12913;BME280;6524;51.368;11.984;2023-07-08T08:54:16;159491.94;;;28.68;25.96
12913;BME280;6524;51.368;11.984;2023-07-08T08:59:51;159406.06;;;28.34;25.44
12913;BME280;6524;51.368;11.984;2023-07-08T09:04:53;159546.03;;;28.89;24.77
12913;BME280;6524;51.368;11.984;2023-07-08T09:10:02;159267.41;;;27.81;26.85
12913;BME280;6524;51.368;11.984;2023-07-08T09:15:13;159464.19;;;28.57;25.31
12913;BME280;6524;51.368;11.984;2023-07-08T09:20:24;159309.63;;;27.97;25.78
12913;BME280;6524;51.368;11.984;2023-07-08T09:25:36;159193.44;;;27.52;26.53
12913;BME280;6524;51.368;11.984;2023-07-08T09:30:40;159563.25;;;28.95;26.33
12913;BME280;6524;51.368;11.984;2023-07-08T09:35:43;159695.41;;;29.46;25.16
12913;BME280;6524;51.368;11.984;2023-07-08T09:40:50;159737.66;;;29.63;25.95
12913;BME280;6524;51.368;11.984;2023-07-08T09:45:58;159902.91;;;30.27;24.41
12913;BME280;6524;51.368;11.984;2023-07-08T09:51:00;159893.63;;;30.23;23.91
12913;BME280;6524;51.368;11.984;2023-07-08T09:56:03;160052.31;;;30.84;23.62
12913;BME280;6524;51.368;11.984;2023-07-08T10:01:25;160031.09;;;30.76;23.74
12913;BME280;6524;51.368;11.984;2023-07-08T10:06:30;159949.19;;;30.45;22.37
12913;BME280;6524;51.368;11.984;2023-07-08T10:11:53;160021.88;;;30.73;22.49
12913;BME280;6524;51.368;11.984;2023-07-08T10:16:56;160140.91;;;31.19;21.81
12913;BME280;6524;51.368;11.984;2023-07-08T10:38:31;160163.38;;;31.27;22.11
12913;BME280;6524;51.368;11.984;2023-07-08T10:59:30;160176.63;;;31.32;19.41
12913;BME280;6524;51.368;11.984;2023-07-08T11:04:56;160258.59;;;31.64;19.57
12913;BME280;6524;51.368;11.984;2023-07-08T11:10:23;160275.81;;;31.71;18.82
12913;BME280;6524;51.368;11.984;2023-07-08T11:20:44;160342.00;;;31.96;17.47
12913;BME280;6524;51.368;11.984;2023-07-08T11:25:49;160457.09;;;32.41;17.86
12913;BME280;6524;51.368;11.984;2023-07-08T11:30:51;160364.44;;;32.05;19.73
12913;BME280;6524;51.368;11.984;2023-07-08T11:35:54;160458.41;;;32.41;19.24
12913;BME280;6524;51.368;11.984;2023-07-08T11:41:11;160535.16;;;32.71;19.16
12913;BME280;6524;51.368;11.984;2023-07-08T11:46:18;160468.97;;;32.45;18.72
12913;BME280;6524;51.368;11.984;2023-07-08T11:51:27;160465.03;;;32.44;19.25
12913;BME280;6524;51.368;11.984;2023-07-08T11:56:47;160512.72;;;32.62;18.25
12913;BME280;6524;51.368;11.984;2023-07-08T12:01:53;160488.84;;;32.53;18.42
12913;BME280;6524;51.368;11.984;2023-07-08T12:07:06;160465.03;;;32.44;18.48
12913;BME280;6524;51.368;11.984;2023-07-08T12:12:23;160552.41;;;32.78;18.12
12913;BME280;6524;51.368;11.984;2023-07-08T12:17:24;160578.84;;;32.88;17.97
12913;BME280;6524;51.368;11.984;2023-07-08T12:22:24;160753.59;;;33.55;17.89
12913;BME280;6524;51.368;11.984;2023-07-08T12:27:25;160838.38;;;33.88;16.94
12913;BME280;6524;51.368;11.984;2023-07-08T12:32:25;160899.25;;;34.12;17.29
12913;BME280;6524;51.368;11.984;2023-07-08T12:37:29;160818.44;;;33.80;17.08
12913;BME280;6524;51.368;11.984;2023-07-08T12:42:31;160791.97;;;33.70;17.17
12913;BME280;6524;51.368;11.984;2023-07-08T12:47:31;160748.34;;;33.53;17.09
12913;BME280;6524;51.368;11.984;2023-07-08T12:52:31;160694.00;;;33.32;17.08
12913;BME280;6524;51.368;11.984;2023-07-08T12:57:32;160713.84;;;33.40;17.05
12913;BME280;6524;51.368;11.984;2023-07-08T13:02:33;160635.78;;;33.10;17.26
12913;BME280;6524;51.368;11.984;2023-07-08T13:07:40;160785.34;;;33.68;17.04
12913;BME280;6524;51.368;11.984;2023-07-08T13:12:41;160684.75;;;33.29;16.77
12913;BME280;6524;51.368;11.984;2023-07-08T13:17:43;160430.66;;;32.31;17.61
12913;BME280;6524;51.368;11.984;2023-07-08T13:22:52;160478.22;;;32.49;17.85
12913;BME280;6524;51.368;11.984;2023-07-08T13:27:59;160586.78;;;32.91;17.15
12913;BME280;6524;51.368;11.984;2023-07-08T13:33:01;160654.31;;;33.17;17.18
12913;BME280;6524;51.368;11.984;2023-07-08T13:38:01;160670.19;;;33.23;17.37
12913;BME280;6524;51.368;11.984;2023-07-08T13:43:02;160629.16;;;33.07;17.28
12913;BME280;6524;51.368;11.984;2023-07-08T13:53:24;160946.94;;;34.30;15.99
12913;BME280;6524;51.368;11.984;2023-07-08T13:58:28;160729.75;;;33.46;16.67
12913;BME280;6524;51.368;11.984;2023-07-08T14:03:29;160727.13;;;33.45;16.57
12913;BME280;6524;51.368;11.984;2023-07-08T14:08:29;160705.94;;;33.37;16.82
12913;BME280;6524;51.368;11.984;2023-07-08T14:13:30;160684.75;;;33.29;17.01
12913;BME280;6524;51.368;11.984;2023-07-08T14:18:32;160631.81;;;33.08;17.04
12913;BME280;6524;51.368;11.984;2023-07-08T14:23:32;160833.00;;;33.86;16.89
12913;BME280;6524;51.368;11.984;2023-07-08T14:28:33;160837.06;;;33.88;16.45
12913;BME280;6524;51.368;11.984;2023-07-08T14:33:34;160721.78;;;33.43;16.91
12913;BME280;6524;51.368;11.984;2023-07-08T14:38:34;160760.22;;;33.58;16.76
12913;BME280;6524;51.368;11.984;2023-07-08T14:43:35;160658.31;;;33.19;16.67
12913;BME280;6524;51.368;11.984;2023-07-08T14:48:39;160625.22;;;33.06;16.82
12913;BME280;6524;51.368;11.984;2023-07-08T14:53:42;160671.50;;;33.24;16.90
12913;BME280;6524;51.368;11.984;2023-07-08T14:58:44;160638.44;;;33.11;16.38
12913;BME280;6524;51.368;11.984;2023-07-08T15:03:46;160486.16;;;32.52;16.65
12913;BME280;6524;51.368;11.984;2023-07-08T15:08:46;160507.41;;;32.60;16.75
12913;BME280;6524;51.368;11.984;2023-07-08T15:13:48;160471.66;;;32.46;16.35
12913;BME280;6524;51.368;11.984;2023-07-08T15:18:48;160396.22;;;32.17;17.50
12913;BME280;6524;51.368;11.984;2023-07-08T15:23:49;160335.38;;;31.94;17.10
12913;BME280;6524;51.368;11.984;2023-07-08T15:28:50;160287.75;;;31.75;17.58
12913;BME280;6524;51.368;11.984;2023-07-08T15:33:52;160208.34;;;31.45;17.88
12913;BME280;6524;51.368;11.984;2023-07-08T15:38:53;160222.91;;;31.50;17.53
12913;BME280;6524;51.368;11.984;2023-07-08T15:43:57;160224.22;;;31.51;17.72
12913;BME280;6524;51.368;11.984;2023-07-08T15:49:01;160189.88;;;31.38;17.55
12913;BME280;6524;51.368;11.984;2023-07-08T15:54:01;160094.63;;;31.01;18.36
12913;BME280;6524;51.368;11.984;2023-07-08T15:59:02;160024.53;;;30.74;17.97
12913;BME280;6524;51.368;11.984;2023-07-08T16:04:03;159986.19;;;30.59;18.86
12913;BME280;6524;51.368;11.984;2023-07-08T16:09:04;160043.03;;;30.81;18.76
12913;BME280;6524;51.368;11.984;2023-07-08T16:14:04;160020.56;;;30.72;18.58
12913;BME280;6524;51.368;11.984;2023-07-08T16:19:05;159976.97;;;30.55;18.60
12913;BME280;6524;51.368;11.984;2023-07-08T16:24:05;159965.03;;;30.51;18.49
12913;BME280;6524;51.368;11.984;2023-07-08T16:29:12;159978.28;;;30.56;18.95
12913;BME280;6524;51.368;11.984;2023-07-08T16:34:14;159947.88;;;30.44;18.17
12913;BME280;6524;51.368;11.984;2023-07-08T16:39:15;159877.75;;;30.17;18.63
12913;BME280;6524;51.368;11.984;2023-07-08T16:44:16;159872.50;;;30.15;19.10
12913;BME280;6524;51.368;11.984;2023-07-08T16:49:19;159853.97;;;30.08;18.90
12913;BME280;6524;51.368;11.984;2023-07-08T16:54:22;159824.94;;;29.96;19.28
12913;BME280;6524;51.368;11.984;2023-07-08T16:59:24;159848.72;;;30.06;19.00
12913;BME280;6524;51.368;11.984;2023-07-08T17:04:24;159742.97;;;29.65;18.79
12913;BME280;6524;51.368;11.984;2023-07-08T17:09:25;159756.16;;;29.70;19.05
12913;BME280;6524;51.368;11.984;2023-07-08T17:14:26;159727.13;;;29.59;19.17
12913;BME280;6524;51.368;11.984;2023-07-08T17:19:26;159715.19;;;29.54;19.18
12913;BME280;6524;51.368;11.984;2023-07-08T17:24:26;159798.47;;;29.86;18.47
12913;BME280;6524;51.368;11.984;2023-07-08T17:29:27;159777.31;;;29.78;18.93
12913;BME280;6524;51.368;11.984;2023-07-08T17:34:28;159731.06;;;29.60;19.72
12913;BME280;6524;51.368;11.984;2023-07-08T17:39:29;159819.63;;;29.94;19.37
12913;BME280;6524;51.368;11.984;2023-07-08T17:44:29;159901.53;;;30.26;19.81
12913;BME280;6524;51.368;11.984;2023-07-08T17:49:29;159758.81;;;29.71;19.51
12913;BME280;6524;51.368;11.984;2023-07-08T17:54:30;159698.03;;;29.47;20.76
12913;BME280;6524;51.368;11.984;2023-07-08T17:59:31;159756.16;;;29.70;19.67
12913;BME280;6524;51.368;11.984;2023-07-08T18:04:31;159801.09;;;29.87;20.25
12913;BME280;6524;51.368;11.984;2023-07-08T18:09:31;159838.16;;;30.02;20.63
12913;BME280;6524;51.368;11.984;2023-07-08T18:14:32;159690.06;;;29.44;20.33
12913;BME280;6524;51.368;11.984;2023-07-08T18:19:32;159597.63;;;29.09;20.88
12913;BME280;6524;51.368;11.984;2023-07-08T18:24:32;159484.00;;;28.65;21.91
12913;BME280;6524;51.368;11.984;2023-07-08T18:29:33;159465.53;;;28.57;22.49
12913;BME280;6524;51.368;11.984;2023-07-08T18:34:33;159531.56;;;28.83;22.28
12913;BME280;6524;51.368;11.984;2023-07-08T18:39:33;159415.28;;;28.38;22.72
12913;BME280;6524;51.368;11.984;2023-07-08T18:44:34;159338.75;;;28.08;23.52
12913;BME280;6524;51.368;11.984;2023-07-08T18:49:37;159167.06;;;27.42;24.39
12913;BME280;6524;51.368;11.984;2023-07-08T18:54:38;159167.06;;;27.42;25.18
12913;BME280;6524;51.368;11.984;2023-07-08T19:05:59;159089.22;;;27.12;26.05
12913;BME280;6524;51.368;11.984;2023-07-08T19:11:00;159132.72;;;27.29;25.72
12913;BME280;6524;51.368;11.984;2023-07-08T19:16:01;159011.31;;;26.82;26.50
12913;BME280;6524;51.368;11.984;2023-07-08T19:21:01;158998.16;;;26.76;26.43
12913;BME280;6524;51.368;11.984;2023-07-08T19:26:01;158849.03;;;26.19;27.40
12913;BME280;6524;51.368;11.984;2023-07-08T19:31:02;158792.28;;;25.97;27.56
12913;BME280;6524;51.368;11.984;2023-07-08T19:36:02;158739.56;;;25.76;27.78
12913;BME280;6524;51.368;11.984;2023-07-08T19:41:09;158641.97;;;25.38;28.28
12913;BME280;6524;51.368;11.984;2023-07-08T19:46:13;158574.72;;;25.12;29.84
12913;BME280;6524;51.368;11.984;2023-07-08T19:51:14;158500.88;;;24.84;30.72
12913;BME280;6524;51.368;11.984;2023-07-08T19:56:18;158506.16;;;24.86;30.22
12913;BME280;6524;51.368;11.984;2023-07-08T20:01:19;158460.03;;;24.68;30.88
12913;BME280;6524;51.368;11.984;2023-07-08T20:06:26;158370.38;;;24.33;31.11
12913;BME280;6524;51.368;11.984;2023-07-08T20:11:26;158299.22;;;24.06;31.39
12913;BME280;6524;51.368;11.984;2023-07-08T20:16:27;158280.81;;;23.98;32.28
12913;BME280;6524;51.368;11.984;2023-07-08T20:21:30;158333.53;;;24.19;31.66
12913;BME280;6524;51.368;11.984;2023-07-08T20:26:32;158317.72;;;24.13;31.84
12913;BME280;6524;51.368;11.984;2023-07-08T20:31:34;158359.84;;;24.29;32.15
12913;BME280;6524;51.368;11.984;2023-07-08T20:36:36;158263.69;;;23.92;32.09
12913;BME280;6524;51.368;11.984;2023-07-08T20:41:36;158195.13;;;23.65;32.36
12913;BME280;6524;51.368;11.984;2023-07-08T20:46:37;158162.22;;;23.52;32.41
12913;BME280;6524;51.368;11.984;2023-07-08T20:51:37;158046.31;;;23.07;33.95
12913;BME280;6524;51.368;11.984;2023-07-08T20:56:37;158075.31;;;23.19;33.53
12913;BME280;6524;51.368;11.984;2023-07-08T21:01:38;158045.00;;;23.07;34.26
12913;BME280;6524;51.368;11.984;2023-07-08T21:06:38;158033.13;;;23.02;34.34
12913;BME280;6524;51.368;11.984;2023-07-08T21:11:38;157977.88;;;22.81;34.99
12913;BME280;6524;51.368;11.984;2023-07-08T21:16:39;157962.03;;;22.75;34.89
12913;BME280;6524;51.368;11.984;2023-07-08T21:21:39;157970.00;;;22.78;34.96
12913;BME280;6524;51.368;11.984;2023-07-08T21:26:42;157963.34;;;22.75;35.06
12913;BME280;6524;51.368;11.984;2023-07-08T21:31:43;157977.88;;;22.81;35.48
12913;BME280;6524;51.368;11.984;2023-07-08T21:36:43;157888.28;;;22.46;35.90
12913;BME280;6524;51.368;11.984;2023-07-08T21:41:48;157804.06;;;22.13;36.47
12913;BME280;6524;51.368;11.984;2023-07-08T21:46:48;157775.06;;;22.02;36.54
12913;BME280;6524;51.368;11.984;2023-07-08T21:51:49;157664.56;;;21.59;37.17
12913;BME280;6524;51.368;11.984;2023-07-08T21:56:49;157701.41;;;21.73;36.87
12913;BME280;6524;51.368;11.984;2023-07-08T22:01:50;157626.41;;;21.44;38.34
12913;BME280;6524;51.368;11.984;2023-07-08T22:06:50;157575.13;;;21.24;37.75
12913;BME280;6524;51.368;11.984;2023-07-08T22:11:52;157556.69;;;21.17;37.97
12913;BME280;6524;51.368;11.984;2023-07-08T22:16:52;157419.88;;;20.64;38.35
12913;BME280;6524;51.368;11.984;2023-07-08T22:21:54;157451.44;;;20.76;38.30
12913;BME280;6524;51.368;11.984;2023-07-08T22:26:55;157210.91;;;19.83;39.33
12913;BME280;6524;51.368;11.984;2023-07-08T22:31:55;157256.84;;;20.01;39.91
12913;BME280;6524;51.368;11.984;2023-07-08T22:36:56;157273.94;;;20.07;39.71
12913;BME280;6524;51.368;11.984;2023-07-08T22:41:56;157284.47;;;20.11;38.97
12913;BME280;6524;51.368;11.984;2023-07-08T22:46:57;157234.50;;;19.92;39.76
12913;BME280;6524;51.368;11.984;2023-07-08T22:51:58;157067.63;;;19.27;40.53
12913;BME280;6524;51.368;11.984;2023-07-08T22:56:59;157143.81;;;19.57;40.48
12913;BME280;6524;51.368;11.984;2023-07-08T23:02:00;157193.72;;;19.76;40.40
12913;BME280;6524;51.368;11.984;2023-07-08T23:07:01;157067.63;;;19.27;40.88
12913;BME280;6524;51.368;11.984;2023-07-08T23:12:03;157104.38;;;19.41;40.98
12913;BME280;6524;51.368;11.984;2023-07-08T23:17:12;157049.22;;;19.20;41.38
12913;BME280;6524;51.368;11.984;2023-07-08T23:22:17;156959.84;;;18.85;41.80
12913;BME280;6524;51.368;11.984;2023-07-08T23:27:22;157005.84;;;19.03;41.55
12913;BME280;6524;51.368;11.984;2023-07-08T23:32:23;157001.91;;;19.02;41.46
12913;BME280;6524;51.368;11.984;2023-07-08T23:37:26;156909.97;;;18.66;42.07
12913;BME280;6524;51.368;11.984;2023-07-08T23:42:30;156938.88;;;18.77;42.36
12913;BME280;6524;51.368;11.984;2023-07-08T23:47:31;156938.88;;;18.77;42.35
12913;BME280;6524;51.368;11.984;2023-07-08T23:52:32;156951.97;;;18.82;42.12
12913;BME280;6524;51.368;11.984;2023-07-08T23:57:32;156730.06;;;17.96;43.09
